KVNY/VNY METAR and TAF weather

Enter ICAO airport designator
Station Type Date Time Source
KVNY METAR 2022/12/04 05:51 UTC NOAA

KVNY 040551Z 00000KT 10SM CLR 14/11 A3010 RMK AO2 SLP187 T01390111 10206 20133 53007


Station Type Date Time Source
KVNY Decoded METAR 2022/12/04 05:51 UTC NOAA

VAN NUYS AIRPORT, CA, United States (KVNY) 34-13N 118-29W 245M
Dec 04, 2022 - 12:51 AM EST / 2022.12.04 0551 UTC
Wind: Calm:0
Visibility: 10 mile(s):0
Sky conditions: clear
Temperature: 57.0 F (13.9 C)
Dew Point: 52.0 F (11.1 C)
Relative Humidity: 83%
Pressure (altimeter): 30.1 in. Hg (1019 hPa)
Pressure tendency: 0.02 inches (0.7 hPa) higher than three hours ago
ob: KVNY 040551Z 00000KT 10SM CLR 14/11 A3010 RMK AO2 SLP187 T01390111 10206 20133 53007
cycle: 6

Station Type Date Time Source
KVNY TAF 2022/12/04 06:42 UTC NOAA

TAF KVNY 040540Z 0406/0506 VRB03KT P6SM SCT200
FM041000 12006KT P6SM BKN050
FM041600 12006KT P6SM -SHRA BKN025 OVC050
FM042200 16008KT P6SM BKN030
FM050400 VRB03KT P6SM SCT050

Example: see airport list